»·PEaware :: QXE515 KPHX-KABQ

QXE515 :: KPHX-KABQ

FLIGHT INFORMATION

Flight Status: Arrived
Operator:
Horizon Air
More flights by this operator :: More flights under this callsign
Pilot: Doug L. (8712)
Aircraft: EMBRAER EMB-170/175
(E170)
More flights by this aircraft type
Origin: KPHX Phoenix Sky Harbor Intl
United States
Destination: KABQ Albuquerque Intl Sunport
United States
More flights between these airports :: More routes between these airports
Route: FORPE1 SJN CABNO KRKEE3
File this flight plan on PilotEdge
Remarks:
Altitude:
(Current/Filed)
31,000ft
Speed:
(Current/Filed)
465kts
Departed: 03-Nov-18 08:02 PM
Arrived: 03-Nov-18 08:49 PM
Distance/Time
Traveled:
284nm/0:46
Distance/Time
To Go:
Arrived

Flight Plot

Page will automatically refresh every two minutes.

Flight plan parsing failed; only flown route is shown


Map Options




Map Legend


Flown Route
Filed Route
Departure Airport
Arrival Airport
Navaid (VOR, NDB)
Fix

Horizontal Profiles

Position Reports

Time Latitude Longitude Heading Altitude Ground
Speed
03-Nov-18 19:27 33.433961 -112.014343 89 1138ft 0kts
03-Nov-18 19:28 33.433961 -112.014343 89 1138ft 0kts
03-Nov-18 19:29 33.433961 -112.014343 89 1138ft 0kts
03-Nov-18 19:30 33.433961 -112.014343 89 1138ft 0kts
03-Nov-18 19:31 33.433961 -112.014343 89 1138ft 0kts
03-Nov-18 19:32 33.433961 -112.014343 89 1138ft 0kts
03-Nov-18 19:33 33.433961 -112.014343 89 1138ft 0kts
03-Nov-18 19:34 33.433961 -112.014343 89 1138ft 0kts
03-Nov-18 19:35 33.433961 -112.014343 89 1138ft 0kts
03-Nov-18 19:36 33.433961 -112.014343 89 1138ft 0kts
03-Nov-18 19:37 33.433961 -112.014343 89 1138ft 0kts
03-Nov-18 19:38 33.433961 -112.014343 89 1138ft 0kts
03-Nov-18 19:39 33.433961 -112.014343 89 1138ft 0kts
03-Nov-18 19:40 33.433961 -112.014343 89 1138ft 0kts
03-Nov-18 19:41 33.433961 -112.014343 89 1138ft 0kts
03-Nov-18 19:42 33.433961 -112.014343 89 1138ft 0kts
03-Nov-18 19:43 33.433961 -112.014343 89 1138ft 0kts
03-Nov-18 19:44 33.433961 -112.014343 89 1138ft 0kts
03-Nov-18 19:45 33.433961 -112.014343 89 1138ft 0kts
03-Nov-18 19:46 33.433961 -112.014343 89 1138ft 0kts
03-Nov-18 19:47 33.433961 -112.014343 89 1138ft 0kts
03-Nov-18 19:48 33.433961 -112.014343 89 1138ft 0kts
03-Nov-18 19:49 33.433961 -112.014343 89 1138ft 0kts
03-Nov-18 19:50 33.433961 -112.014343 89 1138ft 0kts
03-Nov-18 19:51 33.433961 -112.014343 89 1138ft 0kts
03-Nov-18 19:52 33.433961 -112.014343 89 1138ft 0kts
03-Nov-18 19:53 33.433961 -112.014343 89 1138ft 0kts
03-Nov-18 19:54 33.433961 -112.014343 89 1138ft 0kts
03-Nov-18 19:55 33.433961 -112.014357 90 1138ft 1kts
03-Nov-18 19:56 33.433968 -112.015074 113 1138ft 2kts
03-Nov-18 19:57 33.434275 -112.015182 199 1138ft 0kts
03-Nov-18 19:58 33.434274 -112.015182 199 1138ft 0kts
03-Nov-18 19:59 33.434274 -112.015182 199 1138ft 0kts
03-Nov-18 20:00 33.434274 -112.015182 199 1138ft 0kts
03-Nov-18 20:01 33.432890 -112.016309 267 1138ft 16kts
03-Nov-18 20:02 33.432839 -112.025022 269 1138ft 20kts
03-Nov-18 20:03 33.432375 -112.026983 181 1138ft 0kts
03-Nov-18 20:04 33.431064 -112.026684 99 1138ft 11kts
03-Nov-18 20:05 33.431382 -111.986289 88 1974ft 201kts
03-Nov-18 20:06 33.435518 -111.902808 79 5443ft 269kts
03-Nov-18 20:07 33.465480 -111.819064 63 9515ft 285kts
03-Nov-18 20:08 33.499560 -111.734302 61 13089ft 291kts
03-Nov-18 20:09 33.535277 -111.646090 59 16076ft 302kts
03-Nov-18 20:10 33.572390 -111.554486 60 18818ft 310kts
03-Nov-18 20:11 33.613460 -111.452909 66 20210ft 355kts
03-Nov-18 20:12 33.657362 -111.343033 69 21611ft 393kts
03-Nov-18 20:13 33.704181 -111.220196 63 23048ft 424kts
03-Nov-18 20:14 33.753077 -111.083848 61 24882ft 438kts
03-Nov-18 20:15 33.799957 -110.952501 60 27253ft 431kts
03-Nov-18 20:16 33.846840 -110.820220 60 28647ft 443kts
03-Nov-18 20:17 33.896709 -110.678652 61 28735ft 474kts
03-Nov-18 20:18 33.948082 -110.532453 61 29599ft 475kts
03-Nov-18 20:19 33.999329 -110.385815 61 30431ft 475kts
03-Nov-18 20:20 34.050259 -110.239430 62 31135ft 475kts
03-Nov-18 20:21 34.101313 -110.091993 62 31233ft 482kts
03-Nov-18 20:22 34.152963 -109.942398 63 31239ft 484kts
03-Nov-18 20:23 34.204352 -109.792261 62 31240ft 485kts
03-Nov-18 20:24 34.255725 -109.641734 62 31176ft 489kts
03-Nov-18 20:25 34.308267 -109.487128 63 31191ft 505kts
03-Nov-18 20:26 34.361363 -109.330024 64 31183ft 508kts
03-Nov-18 20:27 34.414348 -109.172272 65 31180ft 508kts
03-Nov-18 20:28 34.441815 -109.003152 78 31183ft 513kts
03-Nov-18 20:29 34.463399 -108.831711 79 30661ft 521kts
03-Nov-18 20:30 34.484304 -108.663186 78 29661ft 498kts
03-Nov-18 20:31 34.505418 -108.497806 75 28696ft 496kts
03-Nov-18 20:32 34.532491 -108.339448 75 27744ft 484kts
03-Nov-18 20:33 34.558330 -108.187895 74 26591ft 446kts
03-Nov-18 20:34 34.582178 -108.047145 73 25152ft 413kts
03-Nov-18 20:35 34.604837 -107.912468 73 23753ft 402kts
03-Nov-18 20:36 34.633239 -107.785513 58 22253ft 379kts
03-Nov-18 20:37 34.679759 -107.674382 56 20253ft 361kts
03-Nov-18 20:38 34.725000 -107.569142 57 18245ft 344kts
03-Nov-18 20:39 34.769698 -107.465239 59 16240ft 364kts
03-Nov-18 20:40 34.816596 -107.355819 65 14276ft 360kts
03-Nov-18 20:41 34.858959 -107.254691 62 13211ft 321kts
03-Nov-18 20:42 34.894225 -107.159113 84 11697ft 305kts
03-Nov-18 20:43 34.891878 -107.058588 92 10140ft 269kts
03-Nov-18 20:44 34.888020 -106.973082 92 8630ft 255kts
03-Nov-18 20:45 34.884295 -106.890545 91 8000ft 227kts
03-Nov-18 20:46 34.880741 -106.812893 91 8019ft 229kts
03-Nov-18 20:47 34.912911 -106.761963 42 7970ft 158kts
03-Nov-18 20:48 34.945023 -106.723658 43 7451ft 162kts
03-Nov-18 20:49 34.976825 -106.685380 43 6598ft 160kts
03-Nov-18 20:50 35.006740 -106.649322 43 5784ft 156kts
03-Nov-18 20:51 35.034598 -106.615744 44 5323ft 91kts
03-Nov-18 20:52 35.043921 -106.610574 2 5322ft 22kts
03-Nov-18 20:53 35.046274 -106.614511 284 5322ft 20kts
03-Nov-18 20:54 35.046883 -106.615899 12 5322ft 0kts
03-Nov-18 20:55 35.046899 -106.615895 12 5322ft 0kts

Navigation Log

Ident Type
Flight plan parsing failed, navigation log unavailable